Time,TemperatureF,DewpointF,PressureIn,WindDirection,WindDirectionDegrees,WindSpeedMPH,WindSpeedGustMPH,Humidity,HourlyPrecipIn,Conditions,Clouds,dailyrainin,SoftwareType,DateUTC
2013-02-01 00:00:00,68.5,63.9,30.04,East,101,3.0,4.0,85,0.00,,,0.00,meteohub,2013-02-01 10:00:00,
2013-02-01 00:05:00,68.5,63.9,30.04,ENE,77,2.0,5.0,85,0.00,,,0.00,meteohub,2013-02-01 10:05:00,
2013-02-01 00:10:00,68.7,64.0,30.04,NE,53,2.0,5.0,85,0.00,,,0.00,meteohub,2013-02-01 10:10:00,
2013-02-01 00:15:00,69.1,64.4,30.04,ENE,58,2.0,5.0,85,0.00,,,0.00,meteohub,2013-02-01 10:15:00,
2013-02-01 00:20:00,69.1,64.4,30.04,East,82,2.0,5.0,85,0.00,,,0.00,meteohub,2013-02-01 10:20:00,
2013-02-01 00:25:00,69.1,64.4,30.04,ESE,110,2.0,4.0,85,0.00,,,0.00,meteohub,2013-02-01 10:25:00,
2013-02-01 00:30:00,69.1,64.8,30.03,East,94,4.0,4.0,86,0.00,,,0.00,meteohub,2013-02-01 10:30:00,
2013-02-01 00:35:00,69.3,64.9,30.04,ENE,58,4.0,5.0,86,0.00,,,0.00,meteohub,2013-02-01 10:35:00,
2013-02-01 00:40:00,69.4,64.8,30.04,NNE,16,1.0,6.0,85,0.00,,,0.00,meteohub,2013-02-01 10:40:00,
2013-02-01 00:45:00,69.4,64.8,30.04,NE,48,2.0,6.0,85,0.00,,,0.00,meteohub,2013-02-01 10:45:00,
2013-02-01 00:50:00,69.3,64.6,30.04,NE,53,2.0,6.0,85,0.00,,,0.00,meteohub,2013-02-01 10:50:00,
2013-02-01 00:56:00,69.3,64.6,30.04,NE,47,1.0,6.0,85,0.00,,,0.00,meteohub,2013-02-01 10:56:00,
2013-02-01 01:01:00,69.1,64.4,30.04,East,86,0.0,4.0,85,0.00,,,0.00,meteohub,2013-02-01 11:01:00,
2013-02-01 01:06:00,69.1,64.4,30.04,NE,36,0.0,4.0,85,0.00,,,0.00,meteohub,2013-02-01 11:06:00,
2013-02-01 01:11:00,69.1,64.0,30.04,East,82,1.0,3.0,84,0.00,,,0.00,meteohub,2013-02-01 11:11:00,
2013-02-01 01:16:00,68.9,63.9,30.04,East,87,0.0,3.0,84,0.00,,,0.00,meteohub,2013-02-01 11:16:00,
2013-02-01 01:21:00,68.5,63.5,30.04,ENE,58,2.0,2.0,84,0.00,,,0.00,meteohub,2013-02-01 11:21:00,
2013-02-01 01:26:00,68.4,63.7,30.04,East,82,1.0,2.0,85,0.00,,,0.00,meteohub,2013-02-01 11:26:00,
2013-02-01 01:31:00,68.2,63.1,30.04,ENE,72,2.0,4.0,84,0.00,,,0.00,meteohub,2013-02-01 11:31:00,
2013-02-01 01:36:00,68.2,63.5,30.04,NW,315,1.0,4.0,85,0.00,,,0.00,meteohub,2013-02-01 11:36:00,
2013-02-01 01:41:00,68.2,63.5,30.04,NW,318,0.0,4.0,85,0.00,,,0.00,meteohub,2013-02-01 11:41:00,
2013-02-01 01:47:00,68.0,63.3,30.03,ESE,120,2.0,4.0,85,0.00,,,0.00,meteohub,2013-02-01 11:47:00,
2013-02-01 01:52:00,67.6,63.0,30.03,ESE,119,2.0,4.0,85,0.00,,,0.00,meteohub,2013-02-01 11:52:00,
2013-02-01 01:57:00,67.6,63.3,30.03,ESE,113,1.0,3.0,86,0.00,,,0.00,meteohub,2013-02-01 11:57:00,
2013-02-01 02:02:00,67.6,63.3,30.03,ENE,71,2.0,3.0,86,0.00,,,0.00,meteohub,2013-02-01 12:02:00,
2013-02-01 02:07:00,67.5,63.1,30.03,ENE,61,1.0,3.0,86,0.00,,,0.00,meteohub,2013-02-01 12:07:00,
2013-02-01 02:12:00,67.5,63.1,30.03,NE,50,3.0,3.0,86,0.00,,,0.00,meteohub,2013-02-01 12:12:00,
2013-02-01 02:17:00,67.5,62.8,30.03,NE,50,1.0,4.0,85,0.00,,,0.00,meteohub,2013-02-01 12:17:00,
2013-02-01 02:22:00,67.5,63.1,30.03,NNE,27,4.0,5.0,86,0.00,,,0.00,meteohub,2013-02-01 12:22:00,
2013-02-01 02:27:00,67.8,63.1,30.03,North,5,1.0,6.0,85,0.00,,,0.00,meteohub,2013-02-01 12:27:00,
2013-02-01 02:32:00,68.2,63.9,30.02,North,356,2.0,6.0,86,0.00,,,0.00,meteohub,2013-02-01 12:32:00,
2013-02-01 02:37:00,68.2,63.9,30.02,NE,46,2.0,6.0,86,0.00,,,0.00,meteohub,2013-02-01 12:37:00,
2013-02-01 02:42:00,68.2,63.9,30.02,NE,41,1.0,6.0,86,0.00,,,0.00,meteohub,2013-02-01 12:42:00,
2013-02-01 02:47:00,68.2,63.9,30.02,ESE,104,2.0,8.0,86,0.00,,,0.00,meteohub,2013-02-01 12:47:00,
2013-02-01 02:52:00,67.8,63.5,30.01,NE,53,3.0,8.0,86,0.00,,,0.00,meteohub,2013-02-01 12:52:00,
2013-02-01 02:57:00,67.6,63.3,30.01,NE,51,0.0,8.0,86,0.00,,,0.00,meteohub,2013-02-01 12:57:00,
2013-02-01 03:02:00,67.3,63.0,30.02,North,9,1.0,4.0,86,0.00,,,0.00,meteohub,2013-02-01 13:02:00,
2013-02-01 03:07:00,66.7,62.1,30.02,NNE,15,3.0,4.0,85,0.00,,,0.00,meteohub,2013-02-01 13:07:00,
2013-02-01 03:12:00,66.9,62.2,30.02,NE,40,0.0,5.0,85,0.00,,,0.00,meteohub,2013-02-01 13:12:00,
2013-02-01 03:17:00,67.1,62.4,30.02,NE,36,3.0,5.0,85,0.00,,,0.00,meteohub,2013-02-01 13:17:00,
2013-02-01 03:22:00,67.3,62.2,30.02,ENE,72,2.0,5.0,84,0.00,,,0.00,meteohub,2013-02-01 13:22:00,
2013-02-01 03:27:00,67.3,61.9,30.02,ENE,72,2.0,5.0,83,0.00,,,0.00,meteohub,2013-02-01 13:27:00,
2013-02-01 03:32:00,67.3,61.9,30.02,ENE,65,0.0,5.0,83,0.00,,,0.00,meteohub,2013-02-01 13:32:00,
2013-02-01 03:37:00,67.3,62.2,30.02,NNE,30,2.0,3.0,84,0.00,,,0.00,meteohub,2013-02-01 13:37:00,
2013-02-01 03:42:00,67.3,61.9,30.02,NE,36,2.0,4.0,83,0.00,,,0.00,meteohub,2013-02-01 13:42:00,
2013-02-01 03:47:00,67.3,61.9,30.02,NE,51,2.0,5.0,83,0.00,,,0.00,meteohub,2013-02-01 13:47:00,
2013-02-01 03:52:00,67.3,62.2,30.01,NE,46,0.0,5.0,84,0.00,,,0.00,meteohub,2013-02-01 13:52:00,
2013-02-01 03:57:00,67.3,62.2,30.01,ENE,61,2.0,6.0,84,0.00,,,0.00,meteohub,2013-02-01 13:57:00,
2013-02-01 04:02:00,67.3,62.2,30.01,NNE,32,0.0,6.0,84,0.00,,,0.00,meteohub,2013-02-01 14:02:00,
2013-02-01 04:07:00,66.9,61.9,30.01,ENE,74,1.0,6.0,84,0.00,,,0.00,meteohub,2013-02-01 14:07:00,
2013-02-01 04:13:00,66.6,61.5,30.01,East,98,6.0,6.0,84,0.00,,,0.00,meteohub,2013-02-01 14:13:00,
2013-02-01 04:18:00,66.4,61.3,30.01,East,82,4.0,6.0,84,0.00,,,0.00,meteohub,2013-02-01 14:18:00,
2013-02-01 04:23:00,66.7,61.3,30.01,East,81,4.0,7.0,83,0.00,,,0.00,meteohub,2013-02-01 14:23:00,
2013-02-01 04:28:00,66.7,61.3,30.01,East,91,2.0,7.0,83,0.00,,,0.00,meteohub,2013-02-01 14:28:00,
2013-02-01 04:33:00,66.7,61.0,30.01,ENE,72,0.0,7.0,82,0.00,,,0.00,meteohub,2013-02-01 14:33:00,
2013-02-01 04:38:00,66.7,61.0,30.01,WNW,296,2.0,5.0,82,0.00,,,0.00,meteohub,2013-02-01 14:38:00,
2013-02-01 04:43:00,66.4,61.0,30.01,North,356,1.0,4.0,83,0.00,,,0.00,meteohub,2013-02-01 14:43:00,
2013-02-01 04:48:00,66.4,61.0,30.01,ESE,114,2.0,4.0,83,0.00,,,0.00,meteohub,2013-02-01 14:48:00,
2013-02-01 04:53:00,66.2,60.8,30.02,East,93,2.0,4.0,83,0.00,,,0.00,meteohub,2013-02-01 14:53:00,
2013-02-01 04:58:00,65.8,60.6,30.02,East,96,1.0,4.0,83,0.00,,,0.00,meteohub,2013-02-01 14:58:00,
2013-02-01 05:03:00,65.7,60.6,30.03,NNW,327,3.0,3.0,84,0.00,,,0.00,meteohub,2013-02-01 15:03:00,
2013-02-01 05:08:00,65.7,60.6,30.03,NE,53,1.0,5.0,84,0.00,,,0.00,meteohub,2013-02-01 15:08:00,
2013-02-01 05:13:00,66.2,61.2,30.03,NW,307,4.0,5.0,84,0.00,,,0.00,meteohub,2013-02-01 15:13:00,
2013-02-01 05:19:00,66.7,61.3,30.03,NW,325,1.0,8.0,83,0.00,,,0.00,meteohub,2013-02-01 15:19:00,
2013-02-01 05:24:00,66.9,61.5,30.03,East,86,1.0,8.0,83,0.00,,,0.00,meteohub,2013-02-01 15:24:00,
2013-02-01 05:29:00,66.6,61.2,30.03,ESE,112,1.0,8.0,83,0.00,,,0.00,meteohub,2013-02-01 15:29:00,
2013-02-01 05:34:00,66.4,61.3,30.02,East,95,2.0,5.0,84,0.00,,,0.00,meteohub,2013-02-01 15:34:00,
2013-02-01 05:39:00,66.0,61.0,30.02,ESE,117,3.0,3.0,84,0.00,,,0.00,meteohub,2013-02-01 15:39:00,
2013-02-01 05:44:00,65.7,60.6,30.02,East,100,2.0,3.0,84,0.00,,,0.00,meteohub,2013-02-01 15:44:00,
2013-02-01 05:49:00,65.5,60.8,30.02,NE,55,1.0,3.0,85,0.00,,,0.00,meteohub,2013-02-01 15:49:00,
2013-02-01 05:54:00,65.5,60.8,30.02,NE,37,1.0,3.0,85,0.00,,,0.00,meteohub,2013-02-01 15:54:00,
2013-02-01 05:59:00,65.3,60.6,30.02,NE,41,1.0,3.0,85,0.00,,,0.00,meteohub,2013-02-01 15:59:00,
2013-02-01 06:04:00,64.9,60.3,30.03,NNW,336,1.0,3.0,85,0.00,,,0.00,meteohub,2013-02-01 16:04:00,
2013-02-01 06:09:00,64.9,60.3,30.03,North,353,2.0,3.0,85,0.00,,,0.00,meteohub,2013-02-01 16:09:00,
2013-02-01 06:14:00,65.3,61.0,30.04,NW,307,1.0,9.0,86,0.00,,,0.00,meteohub,2013-02-01 16:14:00,
2013-02-01 06:19:00,65.7,61.0,30.04,NNE,25,5.0,9.0,85,0.00,,,0.00,meteohub,2013-02-01 16:19:00,
2013-02-01 06:24:00,66.0,61.0,30.04,ENE,57,3.0,11.0,84,0.00,,,0.00,meteohub,2013-02-01 16:24:00,
2013-02-01 06:29:00,65.8,60.8,30.05,ENE,65,1.0,11.0,84,0.00,,,0.00,meteohub,2013-02-01 16:29:00,
2013-02-01 06:35:00,65.8,60.8,30.05,North,350,5.0,11.0,84,0.00,,,0.00,meteohub,2013-02-01 16:35:00,
2013-02-01 06:40:00,66.0,61.0,30.05,North,356,2.0,10.0,84,0.00,,,0.00,meteohub,2013-02-01 16:40:00,
2013-02-01 06:45:00,66.2,61.5,30.05,NW,312,3.0,11.0,85,0.00,,,0.00,meteohub,2013-02-01 16:45:00,
2013-02-01 06:50:00,66.2,61.2,30.04,ENE,75,1.0,11.0,84,0.00,,,0.00,meteohub,2013-02-01 16:50:00,
2013-02-01 06:55:00,65.8,60.8,30.05,NE,51,1.0,11.0,84,0.00,,,0.00,meteohub,2013-02-01 16:55:00,
2013-02-01 07:00:00,65.5,60.4,30.05,NE,40,3.0,5.0,84,0.00,,,0.00,meteohub,2013-02-01 17:00:00,
2013-02-01 07:05:00,64.9,59.9,30.06,NE,49,3.0,7.0,84,0.00,,,0.00,meteohub,2013-02-01 17:05:00,
2013-02-01 07:10:00,64.9,60.3,30.06,ENE,61,7.0,9.0,85,0.00,,,0.00,meteohub,2013-02-01 17:10:00,
2013-02-01 07:15:00,65.7,61.0,30.06,NE,54,6.0,14.0,85,0.00,,,0.00,meteohub,2013-02-01 17:15:00,
2013-02-01 07:20:00,66.0,61.0,30.06,North,356,3.0,14.0,84,0.00,,,0.00,meteohub,2013-02-01 17:20:00,
2013-02-01 07:25:00,66.2,61.2,30.06,NNE,26,1.0,11.0,84,0.00,,,0.00,meteohub,2013-02-01 17:25:00,
2013-02-01 07:30:00,66.2,60.8,30.06,NE,50,2.0,8.0,83,0.00,,,0.00,meteohub,2013-02-01 17:30:00,
2013-02-01 07:35:00,66.0,60.6,30.06,NNE,25,3.0,7.0,83,0.00,,,0.00,meteohub,2013-02-01 17:35:00,
2013-02-01 07:40:00,65.8,60.6,30.06,NE,49,2.0,5.0,83,0.00,,,0.00,meteohub,2013-02-01 17:40:00,
2013-02-01 07:45:00,65.8,60.6,30.06,NNE,32,2.0,5.0,83,0.00,,,0.00,meteohub,2013-02-01 17:45:00,
2013-02-01 07:50:00,66.4,60.4,30.06,NNE,15,1.0,7.0,81,0.00,,,0.00,meteohub,2013-02-01 17:50:00,
2013-02-01 07:56:00,66.7,60.4,30.06,NE,40,2.0,7.0,80,0.00,,,0.00,meteohub,2013-02-01 17:56:00,
2013-02-01 08:01:00,67.3,60.6,30.07,NE,47,2.0,7.0,79,0.00,,,0.00,meteohub,2013-02-01 18:01:00,
2013-02-01 08:06:00,67.5,60.4,30.07,East,96,2.0,8.0,78,0.00,,,0.00,meteohub,2013-02-01 18:06:00,
2013-02-01 08:11:00,68.0,60.8,30.07,NNW,346,1.0,8.0,78,0.00,,,0.00,meteohub,2013-02-01 18:11:00,
2013-02-01 08:16:00,68.2,60.3,30.08,ENE,60,1.0,8.0,76,0.00,,,0.00,meteohub,2013-02-01 18:16:00,
2013-02-01 08:21:00,68.4,60.4,30.08,NE,46,1.0,5.0,76,0.00,,,0.00,meteohub,2013-02-01 18:21:00,
2013-02-01 08:26:00,68.4,60.4,30.08,NNE,32,4.0,5.0,76,0.00,,,0.00,meteohub,2013-02-01 18:26:00,
2013-02-01 08:31:00,68.2,60.3,30.09,NNE,22,3.0,6.0,76,0.00,,,0.00,meteohub,2013-02-01 18:31:00,
2013-02-01 08:36:00,68.0,59.7,30.09,North,0,1.0,7.0,75,0.00,,,0.00,meteohub,2013-02-01 18:36:00,
2013-02-01 08:41:00,68.0,59.7,30.09,NE,53,3.0,7.0,75,0.00,,,0.00,meteohub,2013-02-01 18:41:00,
2013-02-01 08:46:00,68.2,59.5,30.09,NE,51,1.0,7.0,74,0.00,,,0.00,meteohub,2013-02-01 18:46:00,
2013-02-01 08:51:00,68.5,60.3,30.09,ENE,65,1.0,5.0,75,0.00,,,0.00,meteohub,2013-02-01 18:51:00,
2013-02-01 08:56:00,69.1,60.4,30.09,ENE,71,0.0,4.0,74,0.00,,,0.00,meteohub,2013-02-01 18:56:00,
2013-02-01 09:01:00,70.0,61.3,30.09,ENE,57,2.0,4.0,74,0.00,,,0.00,meteohub,2013-02-01 19:01:00,
2013-02-01 09:07:00,70.5,61.5,30.09,ENE,59,3.0,4.0,73,0.00,,,0.00,meteohub,2013-02-01 19:07:00,
2013-02-01 09:12:00,71.1,61.9,30.09,NE,49,1.0,6.0,73,0.00,,,0.00,meteohub,2013-02-01 19:12:00,
2013-02-01 09:17:00,71.4,62.2,30.09,ENE,67,0.0,6.0,73,0.00,,,0.00,meteohub,2013-02-01 19:17:00,
2013-02-01 09:22:00,72.0,62.8,30.09,ENE,67,0.0,6.0,73,0.00,,,0.00,meteohub,2013-02-01 19:22:00,
2013-02-01 09:27:00,72.0,61.7,30.09,WSW,255,0.0,3.0,70,0.00,,,0.00,meteohub,2013-02-01 19:27:00,
2013-02-01 09:32:00,72.0,62.1,30.09,NNW,348,0.0,2.0,71,0.00,,,0.00,meteohub,2013-02-01 19:32:00,
2013-02-01 09:37:00,72.7,62.8,30.09,SSE,158,0.0,2.0,71,0.00,,,0.00,meteohub,2013-02-01 19:37:00,
2013-02-01 09:42:00,73.2,62.8,30.09,East,96,4.0,4.0,70,0.00,,,0.00,meteohub,2013-02-01 19:42:00,
2013-02-01 09:47:00,73.4,62.6,30.09,ESE,114,0.0,4.0,69,0.00,,,0.00,meteohub,2013-02-01 19:47:00,
2013-02-01 09:52:00,73.4,62.2,30.09,SW,236,2.0,4.0,68,0.00,,,0.00,meteohub,2013-02-01 19:52:00,
2013-02-01 09:57:00,73.6,63.1,30.09,ESE,112,0.0,5.0,70,0.00,,,0.00,meteohub,2013-02-01 19:57:00,
2013-02-01 10:02:00,73.8,62.6,30.09,West,265,4.0,5.0,68,0.00,,,0.00,meteohub,2013-02-01 20:02:00,
2013-02-01 10:07:00,73.2,62.8,30.09,WSW,253,2.0,5.0,70,0.00,,,0.00,meteohub,2013-02-01 20:07:00,
2013-02-01 10:12:00,73.4,62.6,30.09,SW,214,4.0,5.0,69,0.00,,,0.00,meteohub,2013-02-01 20:12:00,
2013-02-01 10:17:00,73.6,62.4,30.09,WSW,255,1.0,6.0,68,0.00,,,0.00,meteohub,2013-02-01 20:17:00,
2013-02-01 10:22:00,73.9,62.8,30.09,SE,141,5.0,7.0,68,0.00,,,0.00,meteohub,2013-02-01 20:22:00,
2013-02-01 10:27:00,74.1,62.4,30.09,SSW,200,5.0,11.0,67,0.00,,,0.00,meteohub,2013-02-01 20:27:00,
2013-02-01 10:32:00,74.3,62.2,30.09,SSE,148,5.0,11.0,66,0.00,,,0.00,meteohub,2013-02-01 20:32:00,
2013-02-01 10:37:00,74.8,63.1,30.09,SSE,163,8.0,11.0,67,0.00,,,0.00,meteohub,2013-02-01 20:37:00,
2013-02-01 10:42:00,75.0,61.5,30.09,SW,219,2.0,13.0,63,0.00,,,0.00,meteohub,2013-02-01 20:42:00,
2013-02-01 10:47:00,75.4,62.4,30.09,SSW,209,6.0,13.0,64,0.00,,,0.00,meteohub,2013-02-01 20:47:00,
2013-02-01 10:52:00,74.8,61.9,30.09,WSW,254,5.0,13.0,64,0.00,,,0.00,meteohub,2013-02-01 20:52:00,
2013-02-01 10:57:00,75.0,61.5,30.09,SSE,152,4.0,12.0,63,0.00,,,0.00,meteohub,2013-02-01 20:57:00,
2013-02-01 11:02:00,75.0,61.2,30.09,SW,228,4.0,12.0,62,0.00,,,0.00,meteohub,2013-02-01 21:02:00,
2013-02-01 11:07:00,75.2,61.7,30.09,WSW,238,9.0,10.0,63,0.00,,,0.00,meteohub,2013-02-01 21:07:00,
2013-02-01 11:12:00,75.2,61.7,30.09,WSW,248,7.0,10.0,63,0.00,,,0.00,meteohub,2013-02-01 21:12:00,
2013-02-01 11:17:00,75.2,61.7,30.09,SW,226,9.0,10.0,63,0.00,,,0.00,meteohub,2013-02-01 21:17:00,
2013-02-01 11:22:00,75.4,61.0,30.08,WSW,252,4.0,10.0,61,0.00,,,0.00,meteohub,2013-02-01 21:22:00,
2013-02-01 11:27:00,75.4,61.5,30.08,WSW,255,6.0,11.0,62,0.00,,,0.00,meteohub,2013-02-01 21:27:00,
2013-02-01 11:32:00,75.6,61.7,30.09,WSW,243,7.0,11.0,62,0.00,,,0.00,meteohub,2013-02-01 21:32:00,
2013-02-01 11:37:00,75.4,61.5,30.08,WSW,253,7.0,15.0,62,0.00,,,0.00,meteohub,2013-02-01 21:37:00,
2013-02-01 11:42:00,75.7,61.9,30.08,SW,219,8.0,15.0,62,0.00,,,0.00,meteohub,2013-02-01 21:42:00,
2013-02-01 11:47:00,75.9,61.5,30.08,WSW,242,6.0,15.0,61,0.00,,,0.00,meteohub,2013-02-01 21:47:00,
2013-02-01 11:52:00,75.9,61.9,30.07,WSW,238,4.0,12.0,62,0.00,,,0.00,meteohub,2013-02-01 21:52:00,
2013-02-01 11:57:00,76.1,62.1,30.07,SW,233,6.0,11.0,62,0.00,,,0.00,meteohub,2013-02-01 21:57:00,
2013-02-01 12:02:00,76.1,61.7,30.07,West,273,7.0,11.0,61,0.00,,,0.00,meteohub,2013-02-01 22:02:00,
2013-02-01 12:07:00,75.9,61.0,30.07,WSW,252,7.0,16.0,60,0.00,,,0.00,meteohub,2013-02-01 22:07:00,
2013-02-01 12:12:00,76.3,61.0,30.06,West,273,4.0,16.0,59,0.00,,,0.00,meteohub,2013-02-01 22:12:00,
2013-02-01 12:17:00,76.3,61.0,30.06,West,274,6.0,16.0,59,0.00,,,0.00,meteohub,2013-02-01 22:17:00,
2013-02-01 12:22:00,76.3,61.9,30.06,West,267,3.0,13.0,61,0.00,,,0.00,meteohub,2013-02-01 22:22:00,
2013-02-01 12:27:00,76.5,61.0,30.06,WSW,253,4.0,13.0,59,0.00,,,0.00,meteohub,2013-02-01 22:27:00,
2013-02-01 12:32:00,76.8,62.4,30.06,SW,226,5.0,13.0,61,0.00,,,0.00,meteohub,2013-02-01 22:32:00,
2013-02-01 12:37:00,77.0,61.5,30.06,SW,217,5.0,11.0,59,0.00,,,0.00,meteohub,2013-02-01 22:37:00,
2013-02-01 12:42:00,77.4,61.9,30.05,SSE,155,4.0,11.0,59,0.00,,,0.00,meteohub,2013-02-01 22:42:00,
2013-02-01 12:47:00,77.4,61.3,30.05,SW,228,4.0,11.0,58,0.00,,,0.00,meteohub,2013-02-01 22:47:00,
2013-02-01 12:52:00,77.0,61.5,30.06,SW,233,7.0,13.0,59,0.00,,,0.00,meteohub,2013-02-01 22:52:00,
2013-02-01 12:57:00,77.0,61.5,30.05,South,171,6.0,13.0,59,0.00,,,0.00,meteohub,2013-02-01 22:57:00,
2013-02-01 13:02:00,77.9,61.9,30.05,WSW,240,7.0,12.0,58,0.00,,,0.00,meteohub,2013-02-01 23:02:00,
2013-02-01 13:07:00,77.7,61.3,30.05,WNW,300,3.0,12.0,57,0.00,,,0.00,meteohub,2013-02-01 23:07:00,
2013-02-01 13:12:00,77.9,61.0,30.04,SW,217,4.0,10.0,56,0.00,,,0.00,meteohub,2013-02-01 23:12:00,
2013-02-01 13:17:00,78.1,60.6,30.04,SSW,210,5.0,10.0,55,0.00,,,0.00,meteohub,2013-02-01 23:17:00,
2013-02-01 13:22:00,78.3,60.3,30.04,WSW,245,7.0,11.0,54,0.00,,,0.00,meteohub,2013-02-01 23:22:00,
2013-02-01 13:27:00,77.9,59.9,30.04,SW,224,6.0,11.0,54,0.00,,,0.00,meteohub,2013-02-01 23:27:00,
2013-02-01 13:32:00,77.9,60.4,30.04,SW,236,10.0,11.0,55,0.00,,,0.00,meteohub,2013-02-01 23:32:00,
2013-02-01 15:38:00,76.8,63.3,30.01,NW,323,3.0,21.0,63,0.00,,,0.00,meteohub,2013-02-02 01:38:00,
2013-02-01 15:43:00,77.4,63.3,30.01,NW,312,11.0,20.0,62,0.00,,,0.00,meteohub,2013-02-02 01:43:00,
2013-02-01 15:48:00,77.2,63.7,30.02,West,281,3.0,18.0,63,0.00,,,0.00,meteohub,2013-02-02 01:48:00,
2013-02-01 15:53:00,76.8,64.2,30.02,NW,310,12.0,19.0,65,0.00,,,0.00,meteohub,2013-02-02 01:53:00,
2013-02-01 15:59:00,76.5,63.9,30.02,WNW,291,11.0,19.0,65,0.00,,,0.00,meteohub,2013-02-02 01:59:00,
2013-02-01 16:04:00,76.8,63.3,30.02,West,273,6.0,19.0,63,0.00,,,0.00,meteohub,2013-02-02 02:04:00,
2013-02-01 16:09:00,77.2,64.0,30.02,WNW,297,5.0,19.0,64,0.00,,,0.00,meteohub,2013-02-02 02:09:00,
2013-02-01 16:14:00,77.0,63.5,30.02,WNW,298,7.0,22.0,63,0.00,,,0.00,meteohub,2013-02-02 02:14:00,
2013-02-01 16:19:00,76.6,63.5,30.02,NW,314,6.0,22.0,64,0.00,,,0.00,meteohub,2013-02-02 02:19:00,
2013-02-01 16:24:00,76.8,64.2,30.02,WNW,298,4.0,22.0,65,0.00,,,0.00,meteohub,2013-02-02 02:24:00,
2013-02-01 16:29:00,76.8,63.7,30.02,WNW,285,6.0,15.0,64,0.00,,,0.00,meteohub,2013-02-02 02:29:00,
2013-02-01 16:34:00,76.8,64.6,30.02,NNW,338,3.0,13.0,66,0.00,,,0.00,meteohub,2013-02-02 02:34:00,
2013-02-01 16:39:00,76.8,63.7,30.02,NW,312,9.0,13.0,64,0.00,,,0.00,meteohub,2013-02-02 02:39:00,
2013-02-01 16:45:00,76.3,64.0,30.02,NW,326,6.0,13.0,66,0.00,,,0.00,meteohub,2013-02-02 02:45:00,
2013-02-01 16:50:00,75.9,63.7,30.02,NNW,339,5.0,16.0,66,0.00,,,0.00,meteohub,2013-02-02 02:50:00,
2013-02-01 16:55:00,76.3,63.1,30.02,NW,304,4.0,16.0,64,0.00,,,0.00,meteohub,2013-02-02 02:55:00,
2013-02-01 17:00:00,76.5,63.3,30.01,WNW,295,5.0,11.0,64,0.00,,,0.00,meteohub,2013-02-02 03:00:00,
2013-02-01 17:06:00,76.6,64.0,30.01,West,280,5.0,11.0,65,0.00,,,0.00,meteohub,2013-02-02 03:06:00,
2013-02-01 17:11:00,76.6,63.1,30.01,WNW,285,5.0,11.0,63,0.00,,,0.00,meteohub,2013-02-02 03:11:00,
2013-02-01 17:16:00,76.5,63.0,30.01,West,277,4.0,10.0,63,0.00,,,0.00,meteohub,2013-02-02 03:16:00,
2013-02-01 17:21:00,76.3,62.8,30.01,WNW,288,2.0,10.0,63,0.00,,,0.00,meteohub,2013-02-02 03:21:00,
2013-02-01 17:27:00,76.8,62.8,30.01,West,259,0.0,9.0,62,0.00,,,0.00,meteohub,2013-02-02 03:27:00,
2013-02-01 17:32:00,77.4,63.3,30.01,SSW,209,2.0,8.0,62,0.00,,,0.00,meteohub,2013-02-02 03:32:00,
2013-02-01 17:37:00,77.5,63.9,30.01,South,181,0.0,6.0,63,0.00,,,0.00,meteohub,2013-02-02 03:37:00,
2013-02-01 17:42:00,77.5,63.0,30.01,SSE,147,1.0,4.0,61,0.00,,,0.00,meteohub,2013-02-02 03:42:00,
2013-02-01 17:47:00,77.4,62.8,30.01,SE,143,2.0,4.0,61,0.00,,,0.00,meteohub,2013-02-02 03:47:00,
2013-02-01 17:52:00,76.6,61.7,30.02,SE,136,2.0,6.0,60,0.00,,,0.00,meteohub,2013-02-02 03:52:00,
2013-02-01 17:57:00,76.3,61.9,30.02,SE,131,2.0,6.0,61,0.00,,,0.00,meteohub,2013-02-02 03:57:00,
2013-02-01 18:02:00,75.9,61.5,30.02,SE,128,5.0,8.0,61,0.00,,,0.00,meteohub,2013-02-02 04:02:00,
2013-02-01 18:07:00,75.6,61.2,30.02,SE,136,3.0,8.0,61,0.00,,,0.00,meteohub,2013-02-02 04:07:00,
2013-02-01 18:12:00,75.0,61.2,30.03,SE,136,4.0,8.0,62,0.00,,,0.00,meteohub,2013-02-02 04:12:00,
2013-02-01 18:17:00,74.8,61.0,30.02,ESE,123,1.0,8.0,62,0.00,,,0.00,meteohub,2013-02-02 04:17:00,
2013-02-01 18:23:00,74.5,60.6,30.03,SE,137,0.0,8.0,62,0.00,,,0.00,meteohub,2013-02-02 04:23:00,
2013-02-01 18:28:00,74.3,59.5,30.03,SSE,160,2.0,8.0,60,0.00,,,0.00,meteohub,2013-02-02 04:28:00,
2013-02-01 18:33:00,74.1,60.3,30.03,SE,131,1.0,8.0,62,0.00,,,0.00,meteohub,2013-02-02 04:33:00,
2013-02-01 18:39:00,73.9,59.7,30.03,South,188,3.0,8.0,61,0.00,,,0.00,meteohub,2013-02-02 04:39:00,
2013-02-01 18:44:00,73.8,60.8,30.03,WSW,246,2.0,5.0,64,0.00,,,0.00,meteohub,2013-02-02 04:44:00,
2013-02-01 18:49:00,73.8,61.7,30.04,WNW,294,1.0,8.0,66,0.00,,,0.00,meteohub,2013-02-02 04:49:00,
2013-02-01 18:54:00,73.4,61.3,30.04,West,274,0.0,8.0,66,0.00,,,0.00,meteohub,2013-02-02 04:54:00,
2013-02-01 18:59:00,72.9,61.3,30.04,SE,126,0.0,8.0,67,0.00,,,0.00,meteohub,2013-02-02 04:59:00,
2013-02-01 19:00:00,72.9,61.3,30.04,SE,126,0.0,8.0,67,0.00,,,0.00,meteohub,2013-02-02 05:00:00,
2013-02-01 19:01:00,72.7,61.2,30.04,SE,129,0.0,6.0,67,0.00,,,0.00,meteohub,2013-02-02 05:01:00,
2013-02-01 19:04:00,72.3,61.2,30.04,SW,229,1.0,6.0,68,0.00,,,0.00,meteohub,2013-02-02 05:04:00,
2013-02-01 19:10:00,72.1,61.3,30.04,ESE,110,2.0,2.0,69,0.00,,,0.00,meteohub,2013-02-02 05:10:00,
2013-02-01 19:15:00,72.1,61.0,30.04,ESE,110,3.0,3.0,68,0.00,,,0.00,meteohub,2013-02-02 05:15:00,
2013-02-01 19:20:00,72.1,61.0,30.04,SE,134,0.0,4.0,68,0.00,,,0.00,meteohub,2013-02-02 05:20:00,
2013-02-01 19:25:00,71.8,60.6,30.04,SE,135,0.0,4.0,68,0.00,,,0.00,meteohub,2013-02-02 05:25:00,
2013-02-01 19:30:00,71.4,60.8,30.05,SE,127,1.0,4.0,69,0.00,,,0.00,meteohub,2013-02-02 05:30:00,
2013-02-01 19:35:00,71.1,60.8,30.05,SSE,147,1.0,3.0,70,0.00,,,0.00,meteohub,2013-02-02 05:35:00,
2013-02-01 19:40:00,70.9,60.6,30.05,SE,135,2.0,3.0,70,0.00,,,0.00,meteohub,2013-02-02 05:40:00,
2013-02-01 19:45:00,70.9,60.6,30.06,SE,129,2.0,4.0,70,0.00,,,0.00,meteohub,2013-02-02 05:45:00,
2013-02-01 19:50:00,70.9,60.6,30.06,SE,127,1.0,4.0,70,0.00,,,0.00,meteohub,2013-02-02 05:50:00,
2013-02-01 19:55:00,70.9,61.0,30.06,ESE,114,1.0,5.0,71,0.00,,,0.00,meteohub,2013-02-02 05:55:00,
2013-02-01 20:00:00,70.9,61.0,30.06,East,96,1.0,5.0,71,0.00,,,0.00,meteohub,2013-02-02 06:00:00,
2013-02-01 20:05:00,70.9,61.0,30.06,ESE,122,2.0,5.0,71,0.00,,,0.00,meteohub,2013-02-02 06:05:00,
2013-02-01 20:10:00,70.7,60.8,30.06,ENE,71,0.0,5.0,71,0.00,,,0.00,meteohub,2013-02-02 06:10:00,
2013-02-01 20:15:00,70.5,60.3,30.07,ESE,107,3.0,4.0,70,0.00,,,0.00,meteohub,2013-02-02 06:15:00,
2013-02-01 20:20:00,70.5,60.3,30.07,ESE,104,2.0,4.0,70,0.00,,,0.00,meteohub,2013-02-02 06:20:00,
2013-02-01 20:25:00,70.3,59.7,30.07,ENE,77,3.0,4.0,69,0.00,,,0.00,meteohub,2013-02-02 06:25:00,
2013-02-01 20:30:00,70.7,59.5,30.07,East,101,1.0,4.0,68,0.00,,,0.00,meteohub,2013-02-02 06:30:00,
2013-02-01 20:36:00,70.5,59.4,30.07,East,83,2.0,4.0,68,0.00,,,0.00,meteohub,2013-02-02 06:36:00,
2013-02-01 20:41:00,70.3,59.4,30.07,SE,127,2.0,4.0,68,0.00,,,0.00,meteohub,2013-02-02 06:41:00,
2013-02-01 20:46:00,70.2,59.2,30.07,East,96,3.0,5.0,68,0.00,,,0.00,meteohub,2013-02-02 06:46:00,
2013-02-01 20:51:00,70.0,59.0,30.08,ESE,119,4.0,7.0,68,0.00,,,0.00,meteohub,2013-02-02 06:51:00,
2013-02-01 20:56:00,70.0,59.0,30.08,ESE,117,2.0,7.0,68,0.00,,,0.00,meteohub,2013-02-02 06:56:00,
2013-02-01 21:01:00,69.8,58.8,30.08,ESE,108,3.0,5.0,68,0.00,,,0.00,meteohub,2013-02-02 07:01:00,
2013-02-01 21:06:00,69.6,58.6,30.07,ESE,117,3.0,5.0,68,0.00,,,0.00,meteohub,2013-02-02 07:06:00,
2013-02-01 21:11:00,69.6,58.6,30.07,ESE,114,2.0,5.0,68,0.00,,,0.00,meteohub,2013-02-02 07:11:00,
2013-02-01 21:16:00,69.4,58.5,30.07,East,86,1.0,5.0,68,0.00,,,0.00,meteohub,2013-02-02 07:16:00,
2013-02-01 21:21:00,69.4,58.8,30.07,East,92,1.0,5.0,69,0.00,,,0.00,meteohub,2013-02-02 07:21:00,
2013-02-01 21:26:00,69.6,59.0,30.07,East,96,2.0,5.0,69,0.00,,,0.00,meteohub,2013-02-02 07:26:00,
2013-02-01 21:31:00,69.4,58.5,30.08,East,98,1.0,5.0,68,0.00,,,0.00,meteohub,2013-02-02 07:31:00,
2013-02-01 21:36:00,69.3,58.6,30.08,ENE,58,2.0,2.0,69,0.00,,,0.00,meteohub,2013-02-02 07:36:00,
2013-02-01 21:42:00,68.7,58.1,30.08,East,81,2.0,2.0,69,0.00,,,0.00,meteohub,2013-02-02 07:42:00,
2013-02-01 21:47:00,68.5,58.3,30.08,ENE,65,2.0,5.0,70,0.00,,,0.00,meteohub,2013-02-02 07:47:00,
2013-02-01 21:52:00,68.4,58.6,30.08,ESE,103,1.0,5.0,71,0.00,,,0.00,meteohub,2013-02-02 07:52:00,
2013-02-01 21:57:00,68.4,58.6,30.08,ESE,112,1.0,5.0,71,0.00,,,0.00,meteohub,2013-02-02 07:57:00,
2013-02-01 22:02:00,68.7,58.5,30.08,East,98,2.0,5.0,70,0.00,,,0.00,meteohub,2013-02-02 08:02:00,
2013-02-01 22:07:00,69.1,58.5,30.08,East,79,1.0,5.0,69,0.00,,,0.00,meteohub,2013-02-02 08:07:00,
2013-02-01 22:12:00,68.7,58.1,30.08,ENE,75,2.0,5.0,69,0.00,,,0.00,meteohub,2013-02-02 08:12:00,
2013-02-01 22:17:00,68.4,58.3,30.08,East,84,3.0,5.0,70,0.00,,,0.00,meteohub,2013-02-02 08:17:00,
2013-02-01 22:22:00,68.4,58.3,30.08,East,84,2.0,5.0,70,0.00,,,0.00,meteohub,2013-02-02 08:22:00,
2013-02-01 22:27:00,68.4,58.3,30.08,East,96,3.0,5.0,70,0.00,,,0.00,meteohub,2013-02-02 08:27:00,
2013-02-01 22:32:00,68.4,58.3,30.08,East,84,2.0,5.0,70,0.00,,,0.00,meteohub,2013-02-02 08:32:00,
2013-02-01 22:37:00,68.5,57.9,30.08,East,94,2.0,4.0,69,0.00,,,0.00,meteohub,2013-02-02 08:37:00,
2013-02-01 22:42:00,68.5,57.9,30.08,ESE,111,0.0,4.0,69,0.00,,,0.00,meteohub,2013-02-02 08:42:00,
2013-02-01 22:47:00,68.4,57.7,30.07,East,92,2.0,4.0,69,0.00,,,0.00,meteohub,2013-02-02 08:47:00,
2013-02-01 22:52:00,68.2,57.6,30.08,ENE,72,1.0,4.0,69,0.00,,,0.00,meteohub,2013-02-02 08:52:00,
2013-02-01 22:57:00,67.8,57.2,30.07,East,94,2.0,4.0,69,0.00,,,0.00,meteohub,2013-02-02 08:57:00,
2013-02-01 23:02:00,67.6,57.6,30.07,ESE,112,2.0,3.0,70,0.00,,,0.00,meteohub,2013-02-02 09:02:00,
2013-02-01 23:08:00,67.6,57.6,30.07,ESE,104,2.0,3.0,70,0.00,,,0.00,meteohub,2013-02-02 09:08:00,
2013-02-01 23:13:00,67.6,57.6,30.06,East,84,4.0,4.0,70,0.00,,,0.00,meteohub,2013-02-02 09:13:00,
2013-02-01 23:18:00,67.5,57.4,30.07,East,86,2.0,4.0,70,0.00,,,0.00,meteohub,2013-02-02 09:18:00,
2013-02-01 23:23:00,67.5,57.4,30.07,East,90,2.0,5.0,70,0.00,,,0.00,meteohub,2013-02-02 09:23:00,
2013-02-01 23:28:00,67.5,57.4,30.07,ESE,114,2.0,6.0,70,0.00,,,0.00,meteohub,2013-02-02 09:28:00,
2013-02-01 23:33:00,67.5,57.7,30.06,ESE,110,2.0,6.0,71,0.00,,,0.00,meteohub,2013-02-02 09:33:00,
2013-02-01 23:38:00,67.8,57.7,30.06,East,90,2.0,5.0,70,0.00,,,0.00,meteohub,2013-02-02 09:38:00,
2013-02-01 23:43:00,67.6,57.6,30.06,East,88,3.0,4.0,70,0.00,,,0.00,meteohub,2013-02-02 09:43:00,
2013-02-01 23:48:00,67.1,57.4,30.06,ESE,119,2.0,3.0,71,0.00,,,0.00,meteohub,2013-02-02 09:48:00,
2013-02-01 23:53:00,66.9,57.2,30.06,ESE,103,4.0,4.0,71,0.00,,,0.00,meteohub,2013-02-02 09:53:00,
2013-02-01 23:58:00,67.3,57.6,30.06,ENE,75,3.0,5.0,71,0.00,,,0.00,meteohub,2013-02-02 09:58:00,